createdAt,value
2023-07-09T00:00:53.444Z,100804.88
2023-07-09T00:03:42.393Z,100806.47
2023-07-09T00:06:11.859Z,100813.19
2023-07-09T00:08:47.754Z,100815.88
2023-07-09T00:11:18.390Z,100812.53
2023-07-09T00:13:47.579Z,100816.88
2023-07-09T00:16:21.879Z,100816.88
2023-07-09T00:18:51.304Z,100815.84
2023-07-09T00:21:24.868Z,100811.47
2023-07-09T00:23:55.427Z,100816.16
2023-07-09T00:26:24.955Z,100820.50
2023-07-09T00:28:53.682Z,100812.81
2023-07-09T00:31:22.705Z,100818.97
2023-07-09T00:33:51.642Z,100822.31
2023-07-09T00:36:28.622Z,100828.09
2023-07-09T00:39:00.398Z,100824.91
2023-07-09T00:41:40.048Z,100831.94
2023-07-09T00:44:31.426Z,100832.09
2023-07-09T00:47:25.358Z,100825.38
2023-07-09T00:50:22.427Z,100825.69
2023-07-09T00:52:59.807Z,100820.84
2023-07-09T00:55:35.191Z,100820.13
2023-07-09T00:58:11.191Z,100820.31
2023-07-09T01:00:48.359Z,100819.63
2023-07-09T01:03:30.625Z,100817.97
2023-07-09T01:06:00.567Z,100822.44
2023-07-09T01:08:34.904Z,100822.25
2023-07-09T01:11:09.780Z,100819.59
2023-07-09T01:13:40.757Z,100816.38
2023-07-09T01:16:09.679Z,100823.19
2023-07-09T01:18:41.099Z,100820.13
2023-07-09T01:21:16.890Z,100819.69
2023-07-09T01:23:48.420Z,100823.78
2023-07-09T01:26:22.362Z,100822.09
2023-07-09T01:28:51.476Z,100827.44
2023-07-09T01:31:21.809Z,100841.25
2023-07-09T01:33:51.791Z,100824.09
2023-07-09T01:36:24.563Z,100824.41
2023-07-09T01:38:55.659Z,100823.72
2023-07-09T01:41:24.503Z,100831.34
2023-07-09T01:43:54.792Z,100830.97
2023-07-09T01:46:23.713Z,100837.31
2023-07-09T01:48:54.205Z,100829.97
2023-07-09T01:51:25.628Z,100840.66
2023-07-09T01:53:55.189Z,100836.63
2023-07-09T01:56:25.704Z,100832.63
2023-07-09T01:58:57.299Z,100841.97
2023-07-09T02:01:27.010Z,100847.59
2023-07-09T02:03:57.269Z,100837.22
2023-07-09T02:06:27.595Z,100834.69
2023-07-09T02:08:58.361Z,100834.69
2023-07-09T02:11:27.414Z,100836.53
2023-07-09T02:13:56.511Z,100836.25
2023-07-09T02:16:25.387Z,100840.56
2023-07-09T02:18:54.450Z,100838.09
2023-07-09T02:21:23.242Z,100843.56
2023-07-09T02:23:54.870Z,100843.34
2023-07-09T02:26:23.811Z,100837.78
2023-07-09T02:28:52.880Z,100839.75
2023-07-09T02:35:53.327Z,100846.38
2023-07-09T02:38:23.024Z,100848.66
2023-07-09T02:40:54.588Z,100842.63
2023-07-09T02:43:23.608Z,100842.25
2023-07-09T02:45:52.865Z,100852.91
2023-07-09T02:48:21.615Z,100852.25
2023-07-09T02:50:51.835Z,100847.34
2023-07-09T02:53:20.561Z,100850.47
2023-07-09T02:55:49.623Z,100849.63
2023-07-09T02:58:19.954Z,100850.78
2023-07-09T03:00:54.016Z,100853.31
2023-07-09T03:03:23.537Z,100860.28
2023-07-09T03:05:52.710Z,100852.44
2023-07-09T03:08:21.572Z,100849.78
2023-07-09T03:10:50.652Z,100849.69
2023-07-09T03:13:20.750Z,100860.91
2023-07-09T03:15:57.630Z,100863.41
2023-07-09T03:18:26.734Z,100852.72
2023-07-09T03:20:55.845Z,100855.41
2023-07-09T03:23:24.630Z,100861.31
2023-07-09T03:25:53.829Z,100869.13
2023-07-09T03:28:24.489Z,100864.81
2023-07-09T03:30:57.235Z,100866.78
2023-07-09T03:33:26.794Z,100875.06
2023-07-09T03:35:56.241Z,100868.91
2023-07-09T03:38:25.246Z,100867.75
2023-07-09T03:40:54.868Z,100871.78
2023-07-09T03:47:57.355Z,100886.63
2023-07-09T03:50:26.349Z,100881.16
2023-07-09T03:52:55.859Z,100883.63
2023-07-09T03:55:27.552Z,100876.78
2023-07-09T03:57:57.460Z,100880.66
2023-07-09T04:00:27.245Z,100884.63
2023-07-09T04:02:58.645Z,100886.00
2023-07-09T04:05:29.186Z,100880.53
2023-07-09T04:07:58.403Z,100888.81
2023-07-09T04:10:27.142Z,100894.16
2023-07-09T04:12:56.240Z,100897.16
2023-07-09T04:15:24.990Z,100893.63
2023-07-09T04:17:54.049Z,100897.97
2023-07-09T04:20:24.560Z,100897.97
2023-07-09T04:22:53.796Z,100895.84
2023-07-09T04:25:23.115Z,100885.19
2023-07-09T04:32:25.586Z,100896.72
2023-07-09T04:34:54.587Z,100903.56
2023-07-09T04:37:24.997Z,100905.63
2023-07-09T04:39:53.641Z,100899.84
2023-07-09T04:42:22.656Z,100905.56
2023-07-09T04:44:51.274Z,100903.13
2023-07-09T04:47:20.297Z,100905.84
2023-07-09T04:49:49.122Z,100907.81
2023-07-09T04:52:18.438Z,100916.19
2023-07-09T04:54:48.643Z,100912.75
2023-07-09T04:57:17.655Z,100918.78
2023-07-09T04:59:46.492Z,100905.31
2023-07-09T05:02:15.650Z,100915.41
2023-07-09T05:04:44.555Z,100911.09
2023-07-09T05:07:14.186Z,100907.13
2023-07-09T05:09:42.996Z,100905.81
2023-07-09T05:12:13.612Z,100907.69
2023-07-09T05:14:42.549Z,100901.72
2023-07-09T05:21:44.442Z,100913.19
2023-07-09T05:24:13.249Z,100918.25
2023-07-09T05:26:42.329Z,100911.63
2023-07-09T05:29:12.433Z,100916.53
2023-07-09T05:36:16.909Z,100918.34
2023-07-09T05:43:16.708Z,100921.63
2023-07-09T05:45:46.732Z,100922.69
2023-07-09T05:48:15.686Z,100923.91
2023-07-09T05:50:44.854Z,100923.53
2023-07-09T05:53:13.853Z,100934.53
2023-07-09T05:55:43.190Z,100929.00
2023-07-09T05:58:12.215Z,100938.19
2023-07-09T06:00:42.628Z,100934.25
2023-07-09T06:03:13.249Z,100943.03
2023-07-09T06:05:43.505Z,100945.19
2023-07-09T06:08:13.998Z,100943.28
2023-07-09T06:10:52.969Z,100935.53
2023-07-09T06:13:23.095Z,100945.63
2023-07-09T06:15:57.220Z,100944.63
2023-07-09T06:18:31.170Z,100945.06
2023-07-09T06:21:03.460Z,100937.16
2023-07-09T06:23:33.258Z,100945.34
2023-07-09T06:26:02.643Z,100945.22
2023-07-09T06:28:33.606Z,100938.38
2023-07-09T06:31:03.065Z,100942.28
2023-07-09T06:38:06.437Z,100951.22
2023-07-09T06:40:35.983Z,100946.03
2023-07-09T06:43:05.113Z,100952.53
2023-07-09T06:45:40.526Z,100949.84
2023-07-09T06:48:09.600Z,100958.19
2023-07-09T06:50:39.407Z,100958.56
2023-07-09T06:53:10.805Z,100954.38
2023-07-09T07:00:14.351Z,100954.75
2023-07-09T07:02:43.329Z,100967.34
2023-07-09T07:05:12.386Z,100960.47
2023-07-09T07:07:41.051Z,100969.78
2023-07-09T07:10:12.028Z,100973.56
2023-07-09T07:12:46.756Z,100970.31
2023-07-09T07:15:19.576Z,100970.06
2023-07-09T07:17:48.803Z,100973.56
2023-07-09T07:20:19.643Z,100976.16
2023-07-09T07:27:21.026Z,100965.47
2023-07-09T07:29:49.849Z,100971.06
2023-07-09T07:32:18.954Z,100967.78
2023-07-09T07:34:49.094Z,100965.94
2023-07-09T07:37:21.969Z,100956.03
2023-07-09T07:39:51.193Z,100942.78
2023-07-09T07:42:21.667Z,100960.88
2023-07-09T07:44:50.797Z,100953.69
2023-07-09T07:47:19.988Z,100950.63
2023-07-09T07:49:48.839Z,100951.31
2023-07-09T07:52:18.096Z,100952.97
2023-07-09T07:54:46.892Z,100947.06
2023-07-09T08:01:50.141Z,100945.50
2023-07-09T08:04:19.031Z,100951.69
2023-07-09T08:06:48.910Z,100941.72
2023-07-09T08:09:18.385Z,100943.00
2023-07-09T08:11:47.650Z,100943.59
2023-07-09T08:14:16.468Z,100946.97
2023-07-09T08:16:45.897Z,100947.50
2023-07-09T08:19:16.370Z,100946.41
2023-07-09T08:21:45.565Z,100943.31
2023-07-09T08:24:15.539Z,100947.19
2023-07-09T08:26:44.543Z,100944.00
2023-07-09T08:29:13.363Z,100944.31
2023-07-09T08:31:43.045Z,100949.63
2023-07-09T08:34:11.865Z,100955.47
2023-07-09T08:36:42.280Z,100959.78
2023-07-09T08:39:11.128Z,100951.31
2023-07-09T08:41:47.828Z,100959.00
2023-07-09T08:44:54.405Z,100952.41
2023-07-09T08:47:35.725Z,100953.03
2023-07-09T08:50:13.207Z,100943.16
2023-07-09T08:52:48.268Z,100947.69
2023-07-09T08:55:22.884Z,100941.19
2023-07-09T08:58:00.959Z,100939.91
2023-07-09T09:05:06.319Z,100939.97
2023-07-09T09:07:45.756Z,100947.34
2023-07-09T09:10:22.278Z,100936.81
2023-07-09T09:13:07.799Z,100939.94
2023-07-09T09:15:37.107Z,100935.13
2023-07-09T09:18:23.839Z,100940.78
2023-07-09T09:21:04.090Z,100941.53
2023-07-09T09:23:50.464Z,100946.34
2023-07-09T09:26:29.484Z,100931.59
2023-07-09T09:28:58.465Z,100936.25
2023-07-09T09:31:30.669Z,100925.38
2023-07-09T09:33:59.534Z,100926.44
2023-07-09T09:36:29.585Z,100930.53
2023-07-09T09:39:04.935Z,100931.28
2023-07-09T09:41:39.172Z,100934.44
2023-07-09T09:44:18.965Z,100936.28
2023-07-09T09:46:50.165Z,100940.03
2023-07-09T09:53:53.845Z,100932.28
2023-07-09T09:56:31.340Z,100938.28
2023-07-09T09:59:01.634Z,100936.00
2023-07-09T10:01:33.670Z,100941.44
2023-07-09T10:04:06.034Z,100940.59
2023-07-09T10:06:39.976Z,100935.19
2023-07-09T10:09:30.482Z,100933.09
2023-07-09T10:12:15.294Z,100935.00
2023-07-09T10:14:58.375Z,100934.13
2023-07-09T10:17:39.797Z,100927.69
2023-07-09T10:20:25.398Z,100939.97
2023-07-09T10:23:04.256Z,100939.53
2023-07-09T10:25:42.754Z,100932.50
2023-07-09T10:28:56.987Z,100926.44
2023-07-09T10:31:43.192Z,100930.81
2023-07-09T10:34:30.309Z,100926.03
2023-07-09T10:37:27.087Z,100928.44
2023-07-09T10:40:00.604Z,100920.47
2023-07-09T10:42:42.893Z,100926.66
2023-07-09T10:45:17.849Z,100923.00
2023-07-09T10:47:51.856Z,100921.16
2023-07-09T10:50:31.264Z,100916.75
2023-07-09T10:53:11.158Z,100907.91
2023-07-09T10:55:50.386Z,100906.06
2023-07-09T10:58:33.941Z,100910.75
2023-07-09T11:01:05.631Z,100915.09
2023-07-09T11:03:44.832Z,100915.25
2023-07-09T11:06:23.243Z,100912.69
2023-07-09T11:08:58.278Z,100910.16
2023-07-09T11:11:37.243Z,100910.41
2023-07-09T11:14:19.618Z,100899.31
2023-07-09T11:16:50.732Z,100899.88
2023-07-09T11:19:23.295Z,100903.78
2023-07-09T11:22:08.676Z,100906.16
2023-07-09T11:24:48.686Z,100905.75
2023-07-09T11:27:25.359Z,100907.31
2023-07-09T11:30:03.973Z,100913.13
2023-07-09T11:32:35.297Z,100907.03
2023-07-09T11:35:22.600Z,100897.94
2023-07-09T11:37:51.441Z,100898.31
2023-07-09T11:40:21.235Z,100895.03
2023-07-09T11:42:55.007Z,100899.88
2023-07-09T11:45:30.804Z,100897.63
2023-07-09T11:48:17.405Z,100898.34
2023-07-09T11:55:31.444Z,100890.63
2023-07-09T11:58:04.117Z,100892.13
2023-07-09T12:00:42.158Z,100893.13
2023-07-09T12:03:21.336Z,100893.16
2023-07-09T12:05:55.521Z,100883.34
2023-07-09T12:08:29.644Z,100891.06
2023-07-09T12:10:58.720Z,100887.31
2023-07-09T12:13:27.574Z,100883.34
2023-07-09T12:15:56.759Z,100876.72
2023-07-09T12:18:27.083Z,100882.31
2023-07-09T12:20:57.937Z,100876.91
2023-07-09T12:23:32.263Z,100873.38
2023-07-09T12:26:04.881Z,100879.63
2023-07-09T12:28:33.706Z,100871.72
2023-07-09T12:31:03.936Z,100875.91
2023-07-09T12:33:34.696Z,100877.34
2023-07-09T12:36:08.952Z,100865.28
2023-07-09T12:38:45.774Z,100869.19
2023-07-09T12:41:24.800Z,100865.28
2023-07-09T12:43:56.176Z,100863.38
2023-07-09T12:46:26.658Z,100867.97
2023-07-09T12:48:59.265Z,100869.22
2023-07-09T12:51:33.007Z,100862.16
2023-07-09T12:54:16.629Z,100862.09
2023-07-09T12:56:46.723Z,100864.00
2023-07-09T12:59:21.982Z,100872.94
2023-07-09T13:01:57.000Z,100862.97
2023-07-09T13:04:33.611Z,100869.81
2023-07-09T13:07:02.976Z,100865.00
2023-07-09T13:09:32.673Z,100867.88
2023-07-09T13:12:05.683Z,100864.59
2023-07-09T13:14:34.495Z,100868.16
2023-07-09T13:21:35.912Z,100857.78
2023-07-09T13:24:15.519Z,100855.25
2023-07-09T13:31:21.801Z,100854.00
2023-07-09T13:33:58.923Z,100846.06
2023-07-09T13:36:28.020Z,100856.84
2023-07-09T13:38:58.157Z,100858.34
2023-07-09T13:41:27.697Z,100861.88
2023-07-09T13:43:57.877Z,100853.09
2023-07-09T13:46:27.515Z,100846.25
2023-07-09T13:48:57.494Z,100860.47
2023-07-09T13:51:26.809Z,100846.06
2023-07-09T13:53:58.869Z,100851.06
2023-07-09T13:56:28.022Z,100848.13
2023-07-09T13:58:56.900Z,100835.00
2023-07-09T14:01:26.890Z,100837.84
2023-07-09T14:04:00.432Z,100840.13
2023-07-09T14:06:29.672Z,100834.78
2023-07-09T14:08:59.949Z,100835.41
2023-07-09T14:11:29.152Z,100826.47
2023-07-09T14:13:58.198Z,100827.44
2023-07-09T14:16:27.497Z,100825.59
2023-07-09T14:18:56.329Z,100832.66
2023-07-09T14:21:28.767Z,100837.22
2023-07-09T14:23:59.007Z,100834.66
2023-07-09T14:26:28.039Z,100826.09
2023-07-09T14:28:57.850Z,100821.53
2023-07-09T14:31:32.770Z,100820.47
2023-07-09T14:34:22.140Z,100818.63
2023-07-09T14:36:53.048Z,100835.63
2023-07-09T14:39:24.464Z,100823.50
2023-07-09T14:41:53.733Z,100823.69
2023-07-09T14:44:27.459Z,100827.09
2023-07-09T14:46:59.558Z,100820.63
2023-07-09T14:49:29.916Z,100825.78
2023-07-09T14:51:59.280Z,100818.78
2023-07-09T14:54:31.974Z,100814.81
2023-07-09T14:57:01.676Z,100819.41
2023-07-09T14:59:30.610Z,100817.91
2023-07-09T15:01:59.821Z,100809.75
2023-07-09T15:04:34.549Z,100805.69
2023-07-09T15:07:03.892Z,100818.16
2023-07-09T15:09:39.662Z,100815.25
2023-07-09T15:12:19.516Z,100813.97
2023-07-09T15:14:48.768Z,100807.28
2023-07-09T15:17:17.901Z,100800.75
2023-07-09T15:19:46.692Z,100807.28
2023-07-09T15:23:53.916Z,100805.56
2023-07-09T15:26:24.498Z,100807.41
2023-07-09T15:28:53.343Z,100798.56
2023-07-09T15:31:22.421Z,100803.25
2023-07-09T15:33:51.250Z,100814.84
2023-07-09T15:36:20.298Z,100803.13
2023-07-09T15:38:49.014Z,100802.25
2023-07-09T15:41:18.652Z,100795.84
2023-07-09T15:43:48.977Z,100802.34
2023-07-09T15:46:23.333Z,100799.81
2023-07-09T15:48:54.247Z,100791.03
2023-07-09T15:51:23.434Z,100790.19
2023-07-09T15:53:52.199Z,100792.00
2023-07-09T15:56:29.190Z,100792.34
2023-07-09T15:59:00.341Z,100793.41
2023-07-09T16:01:29.744Z,100791.06
2023-07-09T16:04:09.694Z,100796.56
2023-07-09T16:11:17.596Z,100789.53
2023-07-09T16:13:48.090Z,100782.16
2023-07-09T16:16:22.564Z,100783.03
2023-07-09T16:18:52.139Z,100778.53
2023-07-09T16:21:27.833Z,100777.41
2023-07-09T16:23:59.802Z,100776.13
2023-07-09T16:26:29.287Z,100778.91
2023-07-09T16:28:58.650Z,100779.72
2023-07-09T16:31:29.139Z,100765.03
2023-07-09T16:33:57.924Z,100767.25
2023-07-09T16:36:27.057Z,100775.66
2023-07-09T16:38:56.157Z,100770.94
2023-07-09T16:41:25.275Z,100769.28
2023-07-09T16:43:53.961Z,100772.88
2023-07-09T16:55:31.203Z,100774.84
2023-07-09T16:58:01.271Z,100777.78
2023-07-09T17:00:34.911Z,100771.97
2023-07-09T17:03:08.400Z,100773.69
2023-07-09T17:05:37.676Z,100785.03
2023-07-09T17:08:06.906Z,100772.00
2023-07-09T17:10:37.953Z,100771.41
2023-07-09T17:13:06.959Z,100772.47
2023-07-09T17:15:45.273Z,100777.56
2023-07-09T17:18:23.393Z,100776.13
2023-07-09T17:20:57.027Z,100776.38
2023-07-09T17:23:30.321Z,100780.72
2023-07-09T17:26:01.622Z,100786.34
2023-07-09T17:28:33.240Z,100780.13
2023-07-09T17:31:03.271Z,100777.03
2023-07-09T17:33:32.580Z,100785.97
2023-07-09T17:43:16.975Z,100791.25
2023-07-09T17:45:48.182Z,100782.09
2023-07-09T17:48:20.070Z,100784.59
2023-07-09T17:50:49.248Z,100784.19
2023-07-09T17:53:21.852Z,100798.72
2023-07-09T17:55:52.340Z,100797.28
2023-07-09T17:58:28.465Z,100793.53
2023-07-09T18:01:01.117Z,100801.22
2023-07-09T18:03:29.994Z,100799.75
2023-07-09T18:05:59.680Z,100804.94
2023-07-09T18:08:28.581Z,100797.03
2023-07-09T18:10:58.919Z,100798.72
2023-07-09T18:13:32.109Z,100791.19
2023-07-09T18:16:01.523Z,100796.97
2023-07-09T18:18:30.631Z,100794.47
2023-07-09T18:20:59.755Z,100796.31
2023-07-09T18:23:28.481Z,100791.69
2023-07-09T18:25:57.756Z,100795.22
2023-07-09T18:28:33.657Z,100792.06
2023-07-09T18:33:34.943Z,100799.75
2023-07-09T18:36:04.065Z,100789.94
2023-07-09T18:38:32.940Z,100796.56
2023-07-09T18:41:02.402Z,100790.69
2023-07-09T18:43:33.192Z,100792.94
2023-07-09T18:46:03.576Z,100793.28
2023-07-09T18:48:32.847Z,100797.19
2023-07-09T18:51:02.463Z,100796.91
2023-07-09T18:53:31.876Z,100803.00
2023-07-09T18:56:01.173Z,100805.56
2023-07-09T18:58:32.610Z,100808.44
2023-07-09T19:01:06.751Z,100804.56
2023-07-09T19:03:39.465Z,100806.31
2023-07-09T19:06:12.793Z,100810.19
2023-07-09T19:08:43.571Z,100804.63
2023-07-09T19:11:12.624Z,100806.16
2023-07-09T19:13:42.799Z,100812.03
2023-07-09T19:16:28.708Z,100812.50
2023-07-09T19:18:58.421Z,100799.09
2023-07-09T19:21:32.419Z,100803.06
2023-07-09T19:24:03.539Z,100808.09
2023-07-09T19:26:32.575Z,100805.88
2023-07-09T19:29:03.460Z,100801.97
2023-07-09T19:31:32.638Z,100813.00
2023-07-09T19:34:01.547Z,100808.72
2023-07-09T19:36:30.776Z,100806.94
2023-07-09T19:38:59.840Z,100811.56
2023-07-09T19:50:58.208Z,100809.06
2023-07-09T19:53:29.481Z,100817.34
2023-07-09T19:55:59.136Z,100818.91
2023-07-09T20:03:02.151Z,100812.47
2023-07-09T20:05:32.275Z,100807.16
2023-07-09T20:08:15.663Z,100819.25
2023-07-09T20:10:44.747Z,100814.91
2023-07-09T20:13:17.896Z,100814.97
2023-07-09T20:15:46.791Z,100814.84
2023-07-09T20:18:18.644Z,100812.03
2023-07-09T20:20:52.018Z,100817.06
2023-07-09T20:23:24.871Z,100824.97
2023-07-09T20:25:54.525Z,100816.78
2023-07-09T20:28:26.573Z,100823.84
2023-07-09T20:30:57.575Z,100823.81
2023-07-09T20:33:29.266Z,100827.50
2023-07-09T20:35:58.303Z,100829.03
2023-07-09T20:38:30.189Z,100829.69
2023-07-09T20:40:59.741Z,100830.56
2023-07-09T20:43:35.815Z,100828.72
2023-07-09T20:46:04.810Z,100837.59
2023-07-09T20:48:34.161Z,100837.28
2023-07-09T20:51:02.912Z,100836.13
2023-07-09T20:53:33.357Z,100842.47
2023-07-09T20:56:02.524Z,100846.81
2023-07-09T21:03:12.213Z,100853.31
2023-07-09T21:05:41.348Z,100857.63
2023-07-09T21:08:17.227Z,100848.56
2023-07-09T21:10:49.858Z,100845.56
2023-07-09T21:13:21.679Z,100851.22
2023-07-09T21:15:54.080Z,100855.25
2023-07-09T21:18:30.096Z,100853.72
2023-07-09T21:20:58.965Z,100859.44
2023-07-09T21:23:27.980Z,100852.19
2023-07-09T21:25:58.120Z,100854.53
2023-07-09T21:37:33.429Z,100867.47
2023-07-09T21:40:27.120Z,100860.13
2023-07-09T21:43:00.375Z,100861.41
2023-07-09T21:45:35.091Z,100858.00
2023-07-09T21:48:08.401Z,100870.84
2023-07-09T21:50:37.316Z,100868.97
2023-07-09T21:53:17.457Z,100867.28
2023-07-09T21:55:46.228Z,100870.78
2023-07-09T22:02:51.884Z,100878.50
2023-07-09T22:05:24.044Z,100887.00
2023-07-09T22:07:54.861Z,100872.59
2023-07-09T22:10:30.582Z,100881.06
2023-07-09T22:13:05.790Z,100881.84
2023-07-09T22:15:36.342Z,100888.03
2023-07-09T22:18:11.887Z,100888.16
2023-07-09T22:20:40.628Z,100884.59
2023-07-09T22:23:20.803Z,100877.97
2023-07-09T22:25:50.648Z,100878.88
2023-07-09T22:28:23.718Z,100885.34
2023-07-09T22:30:52.593Z,100884.81
2023-07-09T22:33:22.999Z,100879.50
2023-07-09T22:35:51.786Z,100874.75
2023-07-09T22:38:23.722Z,100872.00
2023-07-09T22:40:52.848Z,100887.03
2023-07-09T22:43:21.989Z,100883.84
2023-07-09T22:45:53.223Z,100877.09
2023-07-09T22:48:24.008Z,100872.06
2023-07-09T22:50:55.086Z,100873.22
2023-07-09T22:53:26.485Z,100866.50
2023-07-09T22:55:55.645Z,100872.84
2023-07-09T22:58:24.703Z,100868.25
2023-07-09T23:00:56.935Z,100878.38
2023-07-09T23:03:35.464Z,100882.22
2023-07-09T23:06:13.434Z,100886.00
2023-07-09T23:08:42.606Z,100892.63
2023-07-09T23:11:17.082Z,100897.88
2023-07-09T23:13:47.263Z,100901.13
2023-07-09T23:16:17.876Z,100902.13
2023-07-09T23:18:49.920Z,100901.88
2023-07-09T23:21:22.224Z,100896.84
2023-07-09T23:23:54.928Z,100891.22
2023-07-09T23:26:23.945Z,100888.16
2023-07-09T23:28:53.062Z,100890.16
2023-07-09T23:31:27.721Z,100878.94
2023-07-09T23:34:00.931Z,100882.88
2023-07-09T23:36:29.769Z,100880.81
2023-07-09T23:38:58.833Z,100877.31
2023-07-09T23:41:32.825Z,100873.09
2023-07-09T23:44:04.662Z,100872.31
2023-07-09T23:46:38.028Z,100872.16
2023-07-09T23:49:16.222Z,100870.31
2023-07-09T23:51:44.983Z,100860.28
2023-07-09T23:54:14.304Z,100859.72
2023-07-09T23:56:46.742Z,100856.47
2023-07-09T23:59:20.818Z,100857.19
